Terminal Aerodrome Forecast
Issued by NWS

Home | Current Version | Previous Version | Text Only | Print | Product List | Glossary Off
Versions: 1 2 3 4 5 6 7 8 9 10 11 12 13 14 15 16 17 18 19 20 21 22 23 24

000
FTUS43 KABR 271100
TAFMBG
TAF
KMBG 271138Z 2712/2812 16011KT P6SM OVC080
     FM271400 14011KT 4SM -SN OVC025
     FM271800 16011KT P6SM BKN040
     FM280000 12006KT P6SM BKN150=

USA.gov is the U.S. government's official web portal to all federal, state and local government web resources and services.